Longview, WA

5:27 AM PST on December 20, 2014 (GMT -0800)
Scappoose Industrial | Change Station
CLOSE
Current Station
Airport
Location: Scappoose,
Elevation: 56 ft
Nearby Weather Stations
Active Advisory: Areal Flood Watch

Elev 56 ft 45.77 °N, 122.86 °W | Updated 34 minutes ago

Rain
Rain
47 °F
Feels Like 47 °F
N
15
Wind Variable Wind from SE

Today
High -- | Low -- °F
--% Chance of Precip.
Yesterday
High -- | Low -- °F
Precip. -- in
7:51 AM 4:28 PM
Waning Crescent, 3% visible
Pressure 29.74 in
Visibility 6.0 miles
Clouds Overcast 1200 ft
Dew Point 44 °F
Humidity 90%
Rainfall 0.36 in
Snow Depth Not available.
UV 0 out of 12
Pollen .50 out of 12
Air Quality Not available.
Flu Activity Not available.
METAR KSPB 201253Z AUTO 14013KT 6SM RA BR OVC012 08/07 A2974 RMK AO2 SLP071 P0014 T00830067

More Conditions Fewer Conditions

Pressure 29.74 in
Visibility 6.0 miles
Clouds Overcast 1200 ft
Dew Point 44 °F
Humidity 90%
Rainfall 0.36 in
Snow Depth Not available.
UV 0 out of 12
Pollen .50 out of 12
Air Quality Not available.
Flu Activity Not available.
METAR KSPB 201253Z AUTO 14013KT 6SM RA BR OVC012 08/07 A2974 RMK AO2 SLP071 P0014 T00830067

More Conditions Fewer Conditions

10-Day Weather Forecast

Almanac

Astronomy

Dec. 20, 2014 Rise Set
Actual Time
Civil Twilight
Nautical Twilight
Astronomical Twilight
Moon
Length of Visible Light
Length of Day
Tomorrow will be .
, % of the Moon is Illuminated

Today's Extremes

State Highs State Lows

Community

WunderPhotos

Upload Photos

1,779,169 photos uploaded!

WunderBlogs® & News

Nearby

Air Quality

  Air Quality AQ Index Pollutant
Not available.

Snow Depth

Station Depth Elevation

Earthquake Activity

City Distance Mag. Time & Date
Minimum magnitude displayed is 2.5.

Coastal Water Temperatures

Place Temperature

Nearby Weather Stations